Wautoma, WI (54982)

9:50 AM CST on February 07, 2016 (GMT -0600)
Mt. Morris Township | | Change Station
CLOSE
Current Station
Personal Weather Station
Location: Wautoma, WI
Elevation: 912 ft
Nearby Weather Stations

Elev 912 ft 44.08 °N, 89.21 °W | Updated 5 minutes ago

Clear
Clear
39.6 °F
Feels Like 37 °F
N
4.2
Wind Variable Wind from NNW

Today
High -- | Low -- °F
--% Chance of Precip.
Yesterday
High -- | Low -- °F
Precip. -- in
Pressure 29.68 in
Visibility 10.0 miles
Clouds Clear
Windchill 37 °F
Dew Point 33 °F
Humidity 78%
Rainfall 0.00 in
Snow Depth Not available.
7:08 AM 5:15 PM
Waning Crescent, 1% visible
METAR KY50 071456Z AUTO 23008KT 10SM CLR 03/M01 A2966 RMK AO2 TSNO 56015 T00271011 SLP049
Pressure 29.68 in
Visibility 10.0 miles
Clouds Clear
Windchill 37 °F
Dew Point 33 °F
Humidity 78%
Rainfall 0.00 in
Snow Depth Not available.
7:08 AM 5:15 PM
Waning Crescent, 1% visible
METAR KY50 071456Z AUTO 23008KT 10SM CLR 03/M01 A2966 RMK AO2 TSNO 56015 T00271011 SLP049

10-Day Weather Forecast

Almanac

Astronomy

Feb. 07, 2016 Rise Set
Actual Time
Civil Twilight
Nautical Twilight
Astronomical Twilight
Moon
Length of Visible Light
Length of Day
Tomorrow will be .
, % of the Moon is Illuminated

Today's Extremes

State Highs State Lows

Community

WunderPhotos

Upload Photos

1,891,216 photos uploaded!

WunderBlog® & News

Nearby

Air Quality

  Air Quality AQ Index Pollutant
Not available.

Snow Depth

Station Depth Elevation

Earthquake Activity

City Distance Mag. Time & Date
Minimum magnitude displayed is 2.5.

Coastal Water Temperatures

Place Temperature

Stations

Nearby Weather Stations

Station Location Temp. Windchill Dew Point Humidity Wind Precip. Elev Updated Type
                   

Watches & Warnings

There are currently no watches in effect.